Monticello Municipal Ellis Field
KLLQ : now visible

Airfield :











YOU CAN JOIN US ON...

 
LOGIN :

Register | Disclaimer

   EN    FR    IT 

 









Legend :    VFR   Marginal VFR   IFR   Intensive IFR   Very Intensive IFR
Visi :
Ceiling :
>= 8 km
>= 3000ft
5 to 8 km
1000 to 3000 ft
1500m to 5 km
500 to 1000 ft
800 to 1500m
200 to 500 ft
< 800m
< 200 ft
Symbols :   Thunderstorms  Fog  Heavy snow  Heavy precipitations  Wind > 20 kt






- Airport Elevation : 270 ft


KLLQ - Monticello Municipal Ellis Field

CURRENT METAR :
  • 212353Z AUTO 19009G17KT 10SM CLR 22/13 A2994 RMK AO2 SLP137 T02170133 10239 20189 56023

EXPIRED METARs :
  • 212253Z AUTO 20012G17KT 10SM CLR 23/13 A2996 RMK AO2 SLP144 T02280133
  • 212153Z AUTO 20011G23KT 10SM CLR 24/13 A2998 RMK AO2 SLP150 T02390133
  • 212053Z AUTO 21011G21KT 10SM FEW029 23/14 A3001 RMK AO2 PK WND 23026/2017 SLP160 T02280139 56037
  • 211953Z AUTO 20011G21KT 10SM FEW025 22/14 A3004 RMK AO2 SLP170 T02220139
  • 211932Z AUTO 19012G21KT 10SM SCT023 22/14 A3005 RMK AO2 T02170139
  • 211925Z AUTO 19013G22KT 10SM BKN022 21/13 A3005 RMK AO2 T02110133
  • 211912Z AUTO 18012G20KT 10SM SCT022 21/13 A3006 RMK AO2 T02060133

TAF KLLQ
Valid from the 22 at 00:00 until the 23 at 00:00 UTC


212344Z 2200/2224 19012G18KT P6SM SCT020 OVC250
FM220200 19014G24KT P6SM SCT025 SCT050
FM220700 20015KT P6SM BKN020 OVC040
FM221100 21018KT P6SM BKN020 OVC040 WS020/22040KT
FM222300 23011G22KT P6SM SCT030
KZME FIR / North America



MET'MAP, your aeronautical weather chart ! - Copyright ORBIFLY December 2007 - Disclaimer

ORBIFLY MET'MAP TEAM :

Programming & Development : Alexandra Zaïnal
Original concept : Baudouin d'Aumeries
Technical & hardware support : Manuel Goepfert
Assistance : Marc-Olivier Méhu




SOURCES & CREDITS :

   NOAA       Earth
Advisory